sensor_id;sensor_type;location;lat;lon;timestamp;pressure;altitude;pressure_sealevel;temperature;humidity
78121;BME280;67585;44.802;10.332;2024-02-23T00:01:34;99571.47;;;10.06;nan
78121;BME280;67585;44.802;10.332;2024-02-23T00:04:00;99569.88;;;10.00;nan
78121;BME280;67585;44.802;10.332;2024-02-23T00:06:28;99579.75;;;9.75;nan
78121;BME280;67585;44.802;10.332;2024-02-23T00:08:56;99576.56;;;9.68;nan
78121;BME280;67585;44.802;10.332;2024-02-23T00:11:23;99550.00;;;10.01;nan
78121;BME280;67585;44.802;10.332;2024-02-23T00:13:52;99541.66;;;9.97;nan
78121;BME280;67585;44.802;10.332;2024-02-23T00:16:18;99562.56;;;10.11;nan
78121;BME280;67585;44.802;10.332;2024-02-23T00:18:50;99553.31;;;9.88;nan
78121;BME280;67585;44.802;10.332;2024-02-23T00:21:18;99537.94;;;9.93;nan
78121;BME280;67585;44.802;10.332;2024-02-23T00:23:44;99478.13;;;9.38;nan
78121;BME280;67585;44.802;10.332;2024-02-23T00:26:09;99418.66;;;9.05;nan
78121;BME280;67585;44.802;10.332;2024-02-23T00:28:34;99387.78;;;9.03;nan
78121;BME280;67585;44.802;10.332;2024-02-23T00:31:00;99470.38;;;9.66;nan
78121;BME280;67585;44.802;10.332;2024-02-23T00:33:26;99339.53;;;8.92;nan
78121;BME280;67585;44.802;10.332;2024-02-23T00:35:55;99369.16;;;9.16;nan
78121;BME280;67585;44.802;10.332;2024-02-23T00:38:20;99324.19;;;8.93;nan
78121;BME280;67585;44.802;10.332;2024-02-23T00:40:49;99291.84;;;8.79;nan
78121;BME280;67585;44.802;10.332;2024-02-23T00:43:14;99325.59;;;8.85;nan
78121;BME280;67585;44.802;10.332;2024-02-23T00:45:39;99407.75;;;9.31;nan
78121;BME280;67585;44.802;10.332;2024-02-23T00:48:06;99429.69;;;9.77;nan
78121;BME280;67585;44.802;10.332;2024-02-23T00:50:32;99447.44;;;9.78;nan
78121;BME280;67585;44.802;10.332;2024-02-23T00:52:57;99298.72;;;8.90;nan
78121;BME280;67585;44.802;10.332;2024-02-23T00:55:22;99340.81;;;9.00;nan
78121;BME280;67585;44.802;10.332;2024-02-23T00:57:50;99464.03;;;9.51;nan
78121;BME280;67585;44.802;10.332;2024-02-23T01:00:16;99318.09;;;8.87;nan
78121;BME280;67585;44.802;10.332;2024-02-23T01:02:43;99473.50;;;9.78;nan
78121;BME280;67585;44.802;10.332;2024-02-23T01:05:09;99344.38;;;9.25;nan
78121;BME280;67585;44.802;10.332;2024-02-23T01:07:35;99377.13;;;9.61;nan
78121;BME280;67585;44.802;10.332;2024-02-23T01:10:01;99344.91;;;9.27;nan
78121;BME280;67585;44.802;10.332;2024-02-23T01:12:26;99246.03;;;8.65;nan
78121;BME280;67585;44.802;10.332;2024-02-23T01:14:53;99377.59;;;9.68;nan
78121;BME280;67585;44.802;10.332;2024-02-23T01:17:18;99331.78;;;9.54;nan
78121;BME280;67585;44.802;10.332;2024-02-23T01:19:44;99291.97;;;9.56;nan
78121;BME280;67585;44.802;10.332;2024-02-23T01:22:15;99385.28;;;10.33;nan
78121;BME280;67585;44.802;10.332;2024-02-23T01:24:41;99248.25;;;9.46;nan
78121;BME280;67585;44.802;10.332;2024-02-23T01:27:07;99434.50;;;10.58;nan
78121;BME280;67585;44.802;10.332;2024-02-23T01:29:33;99417.50;;;10.62;nan
78121;BME280;67585;44.802;10.332;2024-02-23T01:31:59;99311.16;;;10.17;nan
78121;BME280;67585;44.802;10.332;2024-02-23T01:34:25;99308.47;;;10.17;nan
78121;BME280;67585;44.802;10.332;2024-02-23T01:36:50;99340.38;;;10.29;nan
78121;BME280;67585;44.802;10.332;2024-02-23T01:39:16;99400.59;;;10.57;nan
78121;BME280;67585;44.802;10.332;2024-02-23T01:41:42;99306.28;;;10.19;nan
78121;BME280;67585;44.802;10.332;2024-02-23T01:44:10;99337.13;;;10.32;nan
78121;BME280;67585;44.802;10.332;2024-02-23T01:46:35;99294.88;;;10.08;nan
78121;BME280;67585;44.802;10.332;2024-02-23T01:49:01;99284.78;;;10.19;nan
78121;BME280;67585;44.802;10.332;2024-02-23T01:51:27;99277.22;;;10.21;nan
78121;BME280;67585;44.802;10.332;2024-02-23T01:53:53;99277.13;;;10.26;nan
78121;BME280;67585;44.802;10.332;2024-02-23T01:56:19;99222.84;;;10.00;nan
78121;BME280;67585;44.802;10.332;2024-02-23T01:58:46;99193.03;;;9.77;nan
78121;BME280;67585;44.802;10.332;2024-02-23T02:01:12;99255.28;;;10.33;nan
78121;BME280;67585;44.802;10.332;2024-02-23T02:03:40;99259.69;;;10.23;nan
78121;BME280;67585;44.802;10.332;2024-02-23T02:06:06;99252.34;;;10.10;nan
78121;BME280;67585;44.802;10.332;2024-02-23T02:08:35;99246.53;;;10.22;nan
78121;BME280;67585;44.802;10.332;2024-02-23T02:11:01;99257.91;;;10.57;nan
78121;BME280;67585;44.802;10.332;2024-02-23T02:13:30;99169.59;;;9.83;nan
78121;BME280;67585;44.802;10.332;2024-02-23T02:16:05;99238.56;;;10.12;nan
78121;BME280;67585;44.802;10.332;2024-02-23T02:18:30;99192.34;;;9.91;nan
78121;BME280;67585;44.802;10.332;2024-02-23T02:20:56;99224.75;;;9.99;nan
78121;BME280;67585;44.802;10.332;2024-02-23T02:23:23;99231.09;;;10.27;nan
78121;BME280;67585;44.802;10.332;2024-02-23T02:25:57;99313.94;;;10.74;nan
78121;BME280;67585;44.802;10.332;2024-02-23T02:28:24;99263.69;;;10.26;nan
78121;BME280;67585;44.802;10.332;2024-02-23T02:30:53;99197.06;;;9.99;nan
78121;BME280;67585;44.802;10.332;2024-02-23T02:33:19;99241.47;;;10.39;nan
78121;BME280;67585;44.802;10.332;2024-02-23T02:35:45;99205.94;;;10.18;nan
78121;BME280;67585;44.802;10.332;2024-02-23T02:38:11;99211.13;;;10.15;nan
78121;BME280;67585;44.802;10.332;2024-02-23T02:40:37;99144.94;;;9.76;nan
78121;BME280;67585;44.802;10.332;2024-02-23T02:43:03;99121.03;;;9.93;nan
78121;BME280;67585;44.802;10.332;2024-02-23T02:45:28;99180.41;;;10.16;nan
78121;BME280;67585;44.802;10.332;2024-02-23T02:47:54;99105.53;;;9.47;nan
78121;BME280;67585;44.802;10.332;2024-02-23T02:50:20;99089.25;;;9.57;nan
78121;BME280;67585;44.802;10.332;2024-02-23T02:52:45;99184.78;;;10.31;nan
78121;BME280;67585;44.802;10.332;2024-02-23T02:55:11;99210.03;;;10.35;nan
78121;BME280;67585;44.802;10.332;2024-02-23T02:57:37;99152.72;;;10.15;nan
78121;BME280;67585;44.802;10.332;2024-02-23T03:00:09;99174.19;;;10.39;nan
78121;BME280;67585;44.802;10.332;2024-02-23T03:02:35;99225.44;;;10.67;nan
78121;BME280;67585;44.802;10.332;2024-02-23T03:05:00;99206.84;;;10.65;nan
78121;BME280;67585;44.802;10.332;2024-02-23T03:07:32;99213.97;;;10.75;nan
78121;BME280;67585;44.802;10.332;2024-02-23T03:09:57;99213.31;;;10.83;nan
78121;BME280;67585;44.802;10.332;2024-02-23T03:12:23;99103.50;;;10.15;nan
78121;BME280;67585;44.802;10.332;2024-02-23T03:14:49;99147.97;;;10.26;nan
78121;BME280;67585;44.802;10.332;2024-02-23T03:17:15;99180.94;;;10.69;nan
78121;BME280;67585;44.802;10.332;2024-02-23T03:19:40;99115.75;;;10.40;nan
78121;BME280;67585;44.802;10.332;2024-02-23T03:22:09;99184.00;;;10.96;nan
78121;BME280;67585;44.802;10.332;2024-02-23T03:24:34;99126.31;;;10.17;nan
78121;BME280;67585;44.802;10.332;2024-02-23T03:27:00;99189.25;;;10.73;nan
78121;BME280;67585;44.802;10.332;2024-02-23T03:29:29;99185.16;;;10.76;nan
78121;BME280;67585;44.802;10.332;2024-02-23T03:31:58;99165.84;;;10.55;nan
78121;BME280;67585;44.802;10.332;2024-02-23T03:34:24;99111.06;;;10.32;nan
78121;BME280;67585;44.802;10.332;2024-02-23T03:36:49;99014.13;;;9.66;nan
78121;BME280;67585;44.802;10.332;2024-02-23T03:39:15;98997.16;;;9.33;nan
78121;BME280;67585;44.802;10.332;2024-02-23T03:41:40;98992.47;;;9.57;nan
78121;BME280;67585;44.802;10.332;2024-02-23T03:44:06;99164.34;;;10.48;nan
78121;BME280;67585;44.802;10.332;2024-02-23T03:46:31;99087.72;;;10.08;nan
78121;BME280;67585;44.802;10.332;2024-02-23T03:48:57;99113.22;;;10.11;nan
78121;BME280;67585;44.802;10.332;2024-02-23T03:51:23;98974.47;;;9.39;nan
78121;BME280;67585;44.802;10.332;2024-02-23T03:53:49;99134.69;;;10.35;nan
78121;BME280;67585;44.802;10.332;2024-02-23T03:56:15;98982.75;;;9.61;nan
78121;BME280;67585;44.802;10.332;2024-02-23T03:58:40;98953.22;;;9.75;nan
78121;BME280;67585;44.802;10.332;2024-02-23T04:01:06;98986.78;;;9.78;nan
78121;BME280;67585;44.802;10.332;2024-02-23T04:03:31;99005.03;;;9.81;nan
78121;BME280;67585;44.802;10.332;2024-02-23T04:05:57;99127.09;;;10.69;nan
78121;BME280;67585;44.802;10.332;2024-02-23T04:08:22;99036.16;;;10.01;nan
78121;BME280;67585;44.802;10.332;2024-02-23T04:10:48;99050.25;;;10.12;nan
78121;BME280;67585;44.802;10.332;2024-02-23T04:13:13;99129.13;;;10.45;nan
78121;BME280;67585;44.802;10.332;2024-02-23T04:15:39;99060.72;;;10.13;nan
78121;BME280;67585;44.802;10.332;2024-02-23T04:18:05;98997.16;;;9.84;nan
78121;BME280;67585;44.802;10.332;2024-02-23T04:20:31;98957.13;;;9.83;nan
78121;BME280;67585;44.802;10.332;2024-02-23T04:22:58;99009.03;;;9.97;nan
78121;BME280;67585;44.802;10.332;2024-02-23T04:25:23;98996.53;;;10.06;nan
78121;BME280;67585;44.802;10.332;2024-02-23T04:27:49;99037.81;;;10.62;nan
78121;BME280;67585;44.802;10.332;2024-02-23T04:30:14;99088.91;;;10.81;nan
78121;BME280;67585;44.802;10.332;2024-02-23T04:32:40;99075.75;;;10.94;nan
78121;BME280;67585;44.802;10.332;2024-02-23T04:35:06;98909.34;;;9.61;nan
78121;BME280;67585;44.802;10.332;2024-02-23T04:37:31;99055.06;;;10.61;nan
78121;BME280;67585;44.802;10.332;2024-02-23T04:39:57;98894.03;;;9.61;nan
78121;BME280;67585;44.802;10.332;2024-02-23T04:42:22;98906.00;;;9.69;nan
78121;BME280;67585;44.802;10.332;2024-02-23T04:44:48;98894.91;;;9.57;nan
78121;BME280;67585;44.802;10.332;2024-02-23T04:47:14;98999.72;;;10.41;nan
78121;BME280;67585;44.802;10.332;2024-02-23T04:49:40;99042.69;;;10.60;nan
78121;BME280;67585;44.802;10.332;2024-02-23T04:52:07;99044.78;;;10.50;nan
78121;BME280;67585;44.802;10.332;2024-02-23T04:54:33;98984.94;;;10.39;nan
78121;BME280;67585;44.802;10.332;2024-02-23T04:56:58;98937.16;;;10.17;nan
78121;BME280;67585;44.802;10.332;2024-02-23T04:59:23;98950.44;;;10.27;nan
78121;BME280;67585;44.802;10.332;2024-02-23T05:01:49;99034.22;;;10.95;nan
78121;BME280;67585;44.802;10.332;2024-02-23T05:04:15;98972.09;;;10.50;nan
78121;BME280;67585;44.802;10.332;2024-02-23T05:06:40;99001.72;;;10.77;nan
78121;BME280;67585;44.802;10.332;2024-02-23T05:09:07;98883.44;;;9.98;nan
78121;BME280;67585;44.802;10.332;2024-02-23T05:11:34;99029.22;;;11.16;nan
78121;BME280;67585;44.802;10.332;2024-02-23T05:14:00;98936.00;;;10.51;nan
78121;BME280;67585;44.802;10.332;2024-02-23T05:16:26;99015.75;;;11.02;nan
78121;BME280;67585;44.802;10.332;2024-02-23T05:18:51;98880.69;;;10.31;nan
78121;BME280;67585;44.802;10.332;2024-02-23T05:21:17;99020.28;;;10.93;nan
78121;BME280;67585;44.802;10.332;2024-02-23T05:23:43;99022.94;;;11.06;nan
78121;BME280;67585;44.802;10.332;2024-02-23T05:26:08;98881.34;;;10.09;nan
78121;BME280;67585;44.802;10.332;2024-02-23T05:28:34;99034.03;;;10.91;nan
78121;BME280;67585;44.802;10.332;2024-02-23T05:31:02;99001.41;;;10.79;nan
78121;BME280;67585;44.802;10.332;2024-02-23T05:33:28;98936.59;;;10.34;nan
78121;BME280;67585;44.802;10.332;2024-02-23T05:35:54;99015.69;;;10.93;nan
78121;BME280;67585;44.802;10.332;2024-02-23T05:38:19;99029.72;;;11.18;nan
78121;BME280;67585;44.802;10.332;2024-02-23T05:40:45;99034.81;;;11.05;nan
78121;BME280;67585;44.802;10.332;2024-02-23T05:43:10;99008.28;;;10.85;nan
78121;BME280;67585;44.802;10.332;2024-02-23T05:45:36;99006.59;;;11.03;nan
78121;BME280;67585;44.802;10.332;2024-02-23T05:48:02;98995.72;;;10.66;nan
78121;BME280;67585;44.802;10.332;2024-02-23T05:50:27;99028.53;;;10.96;nan
78121;BME280;67585;44.802;10.332;2024-02-23T05:52:52;99029.22;;;11.02;nan
78121;BME280;67585;44.802;10.332;2024-02-23T05:55:18;99016.06;;;10.73;nan
78121;BME280;67585;44.802;10.332;2024-02-23T05:57:44;99040.22;;;10.91;nan
78121;BME280;67585;44.802;10.332;2024-02-23T06:00:09;99046.63;;;10.68;nan
78121;BME280;67585;44.802;10.332;2024-02-23T06:02:35;99000.63;;;10.37;nan
78121;BME280;67585;44.802;10.332;2024-02-23T06:05:01;99068.31;;;10.58;nan
78121;BME280;67585;44.802;10.332;2024-02-23T06:07:26;99046.38;;;10.37;nan
78121;BME280;67585;44.802;10.332;2024-02-23T06:10:21;99066.69;;;10.43;nan
78121;BME280;67585;44.802;10.332;2024-02-23T06:12:46;99043.34;;;10.38;nan
78121;BME280;67585;44.802;10.332;2024-02-23T06:15:11;99073.47;;;10.40;nan
78121;BME280;67585;44.802;10.332;2024-02-23T06:17:37;99013.63;;;9.97;nan
78121;BME280;67585;44.802;10.332;2024-02-23T06:20:07;99079.28;;;10.15;nan
78121;BME280;67585;44.802;10.332;2024-02-23T06:22:33;99056.84;;;9.87;nan
78121;BME280;67585;44.802;10.332;2024-02-23T06:24:59;99084.56;;;10.20;nan
78121;BME280;67585;44.802;10.332;2024-02-23T06:27:25;99059.75;;;10.23;nan
78121;BME280;67585;44.802;10.332;2024-02-23T06:29:52;99057.09;;;10.04;nan
78121;BME280;67585;44.802;10.332;2024-02-23T06:32:18;99068.03;;;10.26;nan
78121;BME280;67585;44.802;10.332;2024-02-23T06:34:43;99048.97;;;10.42;nan
78121;BME280;67585;44.802;10.332;2024-02-23T06:37:09;99052.53;;;10.37;nan
78121;BME280;67585;44.802;10.332;2024-02-23T06:39:34;99055.53;;;10.17;nan
78121;BME280;67585;44.802;10.332;2024-02-23T06:42:00;99048.69;;;10.24;nan
78121;BME280;67585;44.802;10.332;2024-02-23T06:44:29;99061.72;;;11.33;nan
78121;BME280;67585;44.802;10.332;2024-02-23T06:46:54;99041.06;;;12.55;nan
78121;BME280;67585;44.802;10.332;2024-02-23T06:49:19;99078.03;;;12.77;nan
78121;BME280;67585;44.802;10.332;2024-02-23T06:51:45;99058.41;;;12.31;nan
78121;BME280;67585;44.802;10.332;2024-02-23T06:54:10;99070.59;;;11.47;nan
78121;BME280;67585;44.802;10.332;2024-02-23T06:56:36;99059.25;;;10.21;nan
78121;BME280;67585;44.802;10.332;2024-02-23T06:59:02;99093.28;;;10.31;nan
78121;BME280;67585;44.802;10.332;2024-02-23T07:01:27;99085.56;;;10.24;nan
78121;BME280;67585;44.802;10.332;2024-02-23T07:03:53;99091.34;;;10.17;nan
78121;BME280;67585;44.802;10.332;2024-02-23T07:06:18;99083.00;;;9.81;nan
78121;BME280;67585;44.802;10.332;2024-02-23T07:08:44;99127.41;;;9.97;nan
78121;BME280;67585;44.802;10.332;2024-02-23T07:11:10;99087.88;;;9.60;nan
78121;BME280;67585;44.802;10.332;2024-02-23T07:13:36;99076.03;;;9.80;nan
78121;BME280;67585;44.802;10.332;2024-02-23T07:16:01;99076.25;;;9.83;nan
78121;BME280;67585;44.802;10.332;2024-02-23T07:18:27;99107.13;;;10.05;nan
78121;BME280;67585;44.802;10.332;2024-02-23T07:20:53;99138.38;;;10.20;nan
78121;BME280;67585;44.802;10.332;2024-02-23T07:23:18;99146.09;;;9.89;nan
78121;BME280;67585;44.802;10.332;2024-02-23T07:25:44;99160.44;;;10.03;nan
78121;BME280;67585;44.802;10.332;2024-02-23T07:28:09;99159.63;;;10.02;nan
78121;BME280;67585;44.802;10.332;2024-02-23T07:30:35;99156.78;;;9.94;nan
78121;BME280;67585;44.802;10.332;2024-02-23T07:33:00;99146.53;;;9.96;nan
78121;BME280;67585;44.802;10.332;2024-02-23T07:35:26;99170.22;;;9.94;nan
78121;BME280;67585;44.802;10.332;2024-02-23T07:37:52;99176.19;;;9.91;nan
78121;BME280;67585;44.802;10.332;2024-02-23T07:40:17;99173.59;;;9.86;nan
78121;BME280;67585;44.802;10.332;2024-02-23T07:42:42;99160.63;;;9.69;nan
78121;BME280;67585;44.802;10.332;2024-02-23T07:45:08;99177.22;;;9.76;nan
78121;BME280;67585;44.802;10.332;2024-02-23T07:47:34;99187.59;;;9.82;nan
78121;BME280;67585;44.802;10.332;2024-02-23T07:50:00;99186.06;;;9.76;nan
78121;BME280;67585;44.802;10.332;2024-02-23T07:52:25;99195.00;;;9.72;nan
78121;BME280;67585;44.802;10.332;2024-02-23T07:54:52;99174.47;;;9.57;nan
78121;BME280;67585;44.802;10.332;2024-02-23T07:57:20;99191.28;;;9.68;nan
78121;BME280;67585;44.802;10.332;2024-02-23T07:59:46;99182.31;;;9.53;nan
78121;BME280;67585;44.802;10.332;2024-02-23T08:02:12;99181.34;;;9.44;nan
78121;BME280;67585;44.802;10.332;2024-02-23T08:04:37;99201.34;;;9.81;nan
78121;BME280;67585;44.802;10.332;2024-02-23T08:07:04;99182.41;;;9.67;nan
78121;BME280;67585;44.802;10.332;2024-02-23T08:09:32;99188.16;;;9.79;nan
78121;BME280;67585;44.802;10.332;2024-02-23T08:11:58;99190.06;;;9.79;nan
78121;BME280;67585;44.802;10.332;2024-02-23T08:14:23;99178.97;;;9.86;nan
78121;BME280;67585;44.802;10.332;2024-02-23T08:16:48;99198.00;;;9.89;nan
78121;BME280;67585;44.802;10.332;2024-02-23T08:19:15;99177.63;;;9.64;nan
78121;BME280;67585;44.802;10.332;2024-02-23T08:21:40;99198.44;;;9.96;nan
78121;BME280;67585;44.802;10.332;2024-02-23T08:24:07;99193.41;;;9.90;nan
78121;BME280;67585;44.802;10.332;2024-02-23T08:26:32;99197.66;;;9.96;nan
78121;BME280;67585;44.802;10.332;2024-02-23T08:28:59;99196.16;;;9.84;nan
78121;BME280;67585;44.802;10.332;2024-02-23T08:31:24;99191.13;;;9.78;nan
78121;BME280;67585;44.802;10.332;2024-02-23T08:33:49;99191.69;;;9.99;nan
78121;BME280;67585;44.802;10.332;2024-02-23T08:36:15;99166.00;;;9.69;nan
78121;BME280;67585;44.802;10.332;2024-02-23T08:38:40;99163.03;;;9.89;nan
78121;BME280;67585;44.802;10.332;2024-02-23T08:41:05;99206.59;;;9.91;nan
78121;BME280;67585;44.802;10.332;2024-02-23T08:43:31;99209.13;;;10.01;nan
78121;BME280;67585;44.802;10.332;2024-02-23T08:45:56;99222.84;;;10.00;nan
78121;BME280;67585;44.802;10.332;2024-02-23T08:48:22;99221.63;;;9.92;nan
78121;BME280;67585;44.802;10.332;2024-02-23T08:50:47;99209.97;;;9.78;nan
78121;BME280;67585;44.802;10.332;2024-02-23T08:53:12;99181.03;;;9.70;nan
78121;BME280;67585;44.802;10.332;2024-02-23T08:55:38;99191.50;;;9.90;nan
78121;BME280;67585;44.802;10.332;2024-02-23T08:58:03;99193.25;;;10.00;nan
78121;BME280;67585;44.802;10.332;2024-02-23T09:00:30;99198.84;;;9.84;nan
78121;BME280;67585;44.802;10.332;2024-02-23T09:02:56;99168.72;;;9.63;nan
78121;BME280;67585;44.802;10.332;2024-02-23T09:05:21;99211.66;;;9.74;nan
78121;BME280;67585;44.802;10.332;2024-02-23T09:07:47;99197.13;;;9.94;nan
78121;BME280;67585;44.802;10.332;2024-02-23T09:10:12;99231.06;;;9.90;nan
78121;BME280;67585;44.802;10.332;2024-02-23T09:12:38;99185.97;;;9.62;nan
78121;BME280;67585;44.802;10.332;2024-02-23T09:15:04;99234.56;;;9.90;nan
78121;BME280;67585;44.802;10.332;2024-02-23T09:17:33;99242.28;;;9.97;nan
78121;BME280;67585;44.802;10.332;2024-02-23T09:19:58;99226.16;;;9.73;nan
78121;BME280;67585;44.802;10.332;2024-02-23T09:22:24;99206.09;;;9.41;nan
78121;BME280;67585;44.802;10.332;2024-02-23T09:24:49;99229.41;;;9.94;nan
78121;BME280;67585;44.802;10.332;2024-02-23T09:27:15;99252.94;;;9.83;nan
78121;BME280;67585;44.802;10.332;2024-02-23T09:29:40;99237.69;;;9.78;nan
78121;BME280;67585;44.802;10.332;2024-02-23T09:32:06;99266.41;;;9.83;nan
78121;BME280;67585;44.802;10.332;2024-02-23T09:34:32;99225.75;;;9.84;nan
78121;BME280;67585;44.802;10.332;2024-02-23T09:36:57;99261.38;;;9.76;nan
78121;BME280;67585;44.802;10.332;2024-02-23T09:39:22;99130.31;;;9.20;nan
78121;BME280;67585;44.802;10.332;2024-02-23T09:41:51;99244.19;;;9.72;nan
78121;BME280;67585;44.802;10.332;2024-02-23T09:44:18;99240.91;;;9.75;nan
78121;BME280;67585;44.802;10.332;2024-02-23T09:46:43;99260.31;;;9.96;nan
78121;BME280;67585;44.802;10.332;2024-02-23T09:49:11;99257.16;;;9.89;nan
78121;BME280;67585;44.802;10.332;2024-02-23T09:51:38;99253.72;;;10.08;nan
78121;BME280;67585;44.802;10.332;2024-02-23T09:54:04;99249.41;;;10.06;nan
78121;BME280;67585;44.802;10.332;2024-02-23T09:56:31;99248.13;;;10.23;nan
78121;BME280;67585;44.802;10.332;2024-02-23T09:59:01;99253.47;;;10.04;nan
78121;BME280;67585;44.802;10.332;2024-02-23T10:01:31;99241.28;;;10.12;nan
78121;BME280;67585;44.802;10.332;2024-02-23T10:03:59;99241.34;;;10.06;nan
78121;BME280;67585;44.802;10.332;2024-02-23T10:06:25;99202.38;;;10.04;nan
78121;BME280;67585;44.802;10.332;2024-02-23T10:08:51;99244.97;;;10.40;nan
78121;BME280;67585;44.802;10.332;2024-02-23T10:11:20;99239.28;;;10.41;nan
78121;BME280;67585;44.802;10.332;2024-02-23T10:13:47;99243.53;;;10.23;nan
78121;BME280;67585;44.802;10.332;2024-02-23T10:16:15;99258.59;;;10.24;nan
78121;BME280;67585;44.802;10.332;2024-02-23T10:18:41;99230.56;;;10.06;nan
78121;BME280;67585;44.802;10.332;2024-02-23T10:21:07;99227.19;;;9.77;nan
78121;BME280;67585;44.802;10.332;2024-02-23T10:23:32;99277.69;;;10.28;nan
78121;BME280;67585;44.802;10.332;2024-02-23T10:25:58;99277.09;;;10.31;nan
78121;BME280;67585;44.802;10.332;2024-02-23T10:28:23;99273.78;;;10.39;nan
78121;BME280;67585;44.802;10.332;2024-02-23T10:30:49;99239.44;;;10.07;nan
78121;BME280;67585;44.802;10.332;2024-02-23T10:33:14;99234.53;;;10.33;nan
78121;BME280;67585;44.802;10.332;2024-02-23T10:35:40;99213.81;;;10.34;nan
78121;BME280;67585;44.802;10.332;2024-02-23T10:38:08;99262.09;;;10.63;nan
78121;BME280;67585;44.802;10.332;2024-02-23T10:40:39;99260.16;;;10.31;nan
78121;BME280;67585;44.802;10.332;2024-02-23T10:43:12;99263.22;;;10.43;nan
78121;BME280;67585;44.802;10.332;2024-02-23T10:45:38;99237.22;;;10.52;nan
78121;BME280;67585;44.802;10.332;2024-02-23T10:48:07;99242.69;;;10.66;nan
78121;BME280;67585;44.802;10.332;2024-02-23T10:50:35;99209.16;;;10.39;nan
78121;BME280;67585;44.802;10.332;2024-02-23T10:53:01;99234.91;;;10.64;nan
78121;BME280;67585;44.802;10.332;2024-02-23T10:55:27;99223.97;;;10.56;nan
78121;BME280;67585;44.802;10.332;2024-02-23T10:57:56;99251.47;;;10.72;nan
78121;BME280;67585;44.802;10.332;2024-02-23T11:00:23;99200.22;;;10.44;nan
78121;BME280;67585;44.802;10.332;2024-02-23T11:02:51;99241.00;;;10.70;nan
78121;BME280;67585;44.802;10.332;2024-02-23T11:05:18;99242.25;;;10.78;nan
78121;BME280;67585;44.802;10.332;2024-02-23T11:07:46;99234.88;;;10.83;nan
78121;BME280;67585;44.802;10.332;2024-02-23T11:10:15;99223.38;;;10.78;nan
78121;BME280;67585;44.802;10.332;2024-02-23T11:12:41;99248.63;;;10.82;nan
78121;BME280;67585;44.802;10.332;2024-02-23T11:15:07;99206.47;;;10.58;nan
78121;BME280;67585;44.802;10.332;2024-02-23T11:17:35;99246.44;;;10.84;nan
78121;BME280;67585;44.802;10.332;2024-02-23T11:20:04;99220.94;;;10.95;nan
78121;BME280;67585;44.802;10.332;2024-02-23T11:22:32;99213.03;;;10.99;nan
78121;BME280;67585;44.802;10.332;2024-02-23T11:25:03;99231.31;;;11.02;nan
78121;BME280;67585;44.802;10.332;2024-02-23T11:27:33;99231.03;;;11.03;nan
78121;BME280;67585;44.802;10.332;2024-02-23T11:30:09;99244.06;;;10.96;nan
78121;BME280;67585;44.802;10.332;2024-02-23T11:32:47;99211.22;;;10.94;nan
78121;BME280;67585;44.802;10.332;2024-02-23T11:35:17;99255.97;;;11.09;nan
78121;BME280;67585;44.802;10.332;2024-02-23T11:40:14;99232.16;;;10.83;nan
78121;BME280;67585;44.802;10.332;2024-02-23T11:42:43;99247.47;;;10.88;nan
78121;BME280;67585;44.802;10.332;2024-02-23T11:45:09;99224.75;;;11.08;nan
78121;BME280;67585;44.802;10.332;2024-02-23T11:47:36;99222.94;;;11.03;nan
78121;BME280;67585;44.802;10.332;2024-02-23T11:50:02;99232.41;;;11.01;nan
78121;BME280;67585;44.802;10.332;2024-02-23T11:52:27;99223.03;;;10.98;nan
78121;BME280;67585;44.802;10.332;2024-02-23T11:54:53;99202.72;;;10.73;nan
78121;BME280;67585;44.802;10.332;2024-02-23T11:57:18;99223.91;;;10.94;nan
78121;BME280;67585;44.802;10.332;2024-02-23T11:59:43;99226.94;;;11.06;nan
78121;BME280;67585;44.802;10.332;2024-02-23T12:02:09;99195.63;;;10.77;nan
78121;BME280;67585;44.802;10.332;2024-02-23T12:04:34;99201.19;;;10.67;nan
78121;BME280;67585;44.802;10.332;2024-02-23T12:07:00;99221.16;;;10.80;nan
78121;BME280;67585;44.802;10.332;2024-02-23T12:09:26;99219.03;;;10.96;nan
78121;BME280;67585;44.802;10.332;2024-02-23T12:11:51;99214.09;;;10.84;nan
78121;BME280;67585;44.802;10.332;2024-02-23T12:14:17;99220.94;;;10.95;nan
78121;BME280;67585;44.802;10.332;2024-02-23T12:16:43;99227.72;;;10.93;nan
78121;BME280;67585;44.802;10.332;2024-02-23T12:19:09;99230.13;;;11.08;nan
78121;BME280;67585;44.802;10.332;2024-02-23T12:21:35;99226.38;;;10.76;nan
78121;BME280;67585;44.802;10.332;2024-02-23T12:24:06;99211.25;;;10.61;nan
78121;BME280;67585;44.802;10.332;2024-02-23T12:26:33;99223.63;;;10.95;nan
78121;BME280;67585;44.802;10.332;2024-02-23T12:29:02;99216.63;;;10.94;nan
78121;BME280;67585;44.802;10.332;2024-02-23T12:31:28;99221.47;;;10.78;nan
78121;BME280;67585;44.802;10.332;2024-02-23T12:33:57;99199.53;;;10.85;nan
78121;BME280;67585;44.802;10.332;2024-02-23T12:36:22;99218.94;;;11.01;nan
78121;BME280;67585;44.802;10.332;2024-02-23T12:38:48;99211.47;;;11.11;nan
78121;BME280;67585;44.802;10.332;2024-02-23T12:41:14;99196.50;;;11.33;nan
78121;BME280;67585;44.802;10.332;2024-02-23T12:43:40;99201.63;;;11.34;nan
78121;BME280;67585;44.802;10.332;2024-02-23T12:46:06;99206.22;;;11.34;nan
78121;BME280;67585;44.802;10.332;2024-02-23T12:48:33;99227.19;;;11.37;nan
78121;BME280;67585;44.802;10.332;2024-02-23T12:50:59;99226.81;;;10.97;nan
78121;BME280;67585;44.802;10.332;2024-02-23T12:53:32;99213.03;;;10.99;nan
78121;BME280;67585;44.802;10.332;2024-02-23T12:56:12;99233.34;;;11.10;nan
78121;BME280;67585;44.802;10.332;2024-02-23T12:58:41;99210.72;;;10.92;nan
78121;BME280;67585;44.802;10.332;2024-02-23T13:01:07;99178.84;;;10.66;nan
78121;BME280;67585;44.802;10.332;2024-02-23T13:03:37;99178.91;;;10.80;nan
78121;BME280;67585;44.802;10.332;2024-02-23T13:06:03;99210.91;;;11.15;nan
78121;BME280;67585;44.802;10.332;2024-02-23T13:08:29;99184.59;;;10.93;nan
78121;BME280;67585;44.802;10.332;2024-02-23T13:10:56;99215.88;;;11.21;nan
78121;BME280;67585;44.802;10.332;2024-02-23T13:13:22;99206.63;;;10.95;nan